Terminal Aerodrome Forecast
Issued by NWS Jackson, MS

Home | Current Version | Previous Version | Text Only | Print | Product List | Glossary On
Versions: 1 2 3 4 5 6 7 8 9 10 11 12 13 14 15 16 17 18 19 20
000
FTUS44 KJAN 282321
TAFMEI
TAF
KMEI 282321Z 2900/2924 11005KT P6SM SCT050 BKN070
     FM290200 14004KT P6SM SCT250
     FM290800 00000KT 4SM BR SCT250
     FM291000 00000KT 2SM BR BKN003
     FM291300 00000KT 4SM BR SCT250
     FM291400 16004KT P6SM SCT020
     FM291800 15006KT P6SM VCTS SCT040CB=

USA.gov is the U.S. government's official web portal to all federal, state and local government web resources and services.